Time;durP1;ratioP1;P1;durP2;ratioP2;P2;SDS_P1;SDS_P2;PMS_P1;PMS_P2;Temp;Humidity;BMP_temperature;BMP_pressure;BME280_temperature;BME280_humidity;BME280_pressure;Samples;Min_cycle;Max_cycle;Signal;HPM_P1;HPM_P2
2022/06/23 00:01:44;;;;;;;8.68;7.85;;;;;;;;;;5064300;28;20025;-74
2022/06/23 00:04:15;;;;;;;9.40;7.25;;;;;;;;;;5064682;28;20029;-74
2022/06/23 00:06:43;;;;;;;8.57;7.85;;;;;;;;;;5068129;28;20060;-72
2022/06/23 00:09:25;;;;;;;8.95;7.55;;;;;;;;;;5056097;28;20951;-73
2022/06/23 00:11:51;;;;;;;8.95;7.82;;;;;;;;;;5060883;28;20033;-74
2022/06/23 00:14:18;;;;;;;10.57;8.10;;;;;;;;;;5053511;28;20401;-72
2022/06/23 00:16:44;;;;;;;9.10;7.75;;;;;;;;;;5060866;28;20023;-72
2022/06/23 00:19:14;;;;;;;8.05;7.28;;;;;;;;;;5061890;28;20028;-74
2022/06/23 00:21:42;;;;;;;7.88;7.18;;;;;;;;;;5066017;28;20020;-74
2022/06/23 00:24:12;;;;;;;8.77;7.43;;;;;;;;;;5060899;28;20485;-74
2022/06/23 00:26:38;;;;;;;11.88;8.73;;;;;;;;;;5063433;28;20035;-74
2022/06/23 00:29:07;;;;;;;8.02;7.28;;;;;;;;;;5061537;28;20052;-74
2022/06/23 00:31:36;;;;;;;8.48;7.53;;;;;;;;;;5064965;28;20029;-73
2022/06/23 00:34:23;;;;;;;8.80;7.85;;;;;;;;;;5061468;28;20047;-73
2022/06/23 00:36:52;;;;;;;8.13;7.43;;;;;;;;;;5061796;28;20113;-73
2022/06/23 00:39:31;;;;;;;11.38;7.80;;;;;;;;;;5060164;28;20027;-73
2022/06/23 00:41:58;;;;;;;9.00;8.10;;;;;;;;;;5061048;28;20021;-74
2022/06/23 00:44:32;;;;;;;8.43;7.63;;;;;;;;;;5063670;28;20151;-74
2022/06/23 00:47:01;;;;;;;8.95;8.07;;;;;;;;;;5056887;28;20017;-72
2022/06/23 00:49:31;;;;;;;9.55;8.52;;;;;;;;;;5062839;28;20090;-73
2022/06/23 00:52:01;;;;;;;11.35;8.27;;;;;;;;;;5065422;28;21228;-74
2022/06/23 00:54:30;;;;;;;8.70;7.90;;;;;;;;;;5062502;28;20090;-74
2022/06/23 00:57:02;;;;;;;8.48;7.32;;;;;;;;;;5063343;28;20021;-74
2022/06/23 00:59:32;;;;;;;8.98;7.20;;;;;;;;;;5067031;28;20029;-74
2022/06/23 01:01:59;;;;;;;10.20;7.50;;;;;;;;;;5064038;28;20385;-73
2022/06/23 01:04:28;;;;;;;12.98;7.97;;;;;;;;;;5065086;28;20056;-72
2022/06/23 01:07:00;;;;;;;7.78;7.07;;;;;;;;;;5062689;28;20029;-74
2022/06/23 01:09:33;;;;;;;8.15;7.35;;;;;;;;;;5060429;28;20036;-73
2022/06/23 01:12:03;;;;;;;8.30;7.45;;;;;;;;;;5045632;28;20032;-73
2022/06/23 01:14:36;;;;;;;8.80;7.90;;;;;;;;;;5060640;28;20029;-74
2022/06/23 01:17:09;;;;;;;8.63;7.75;;;;;;;;;;5060983;28;21221;-74
2022/06/23 01:19:46;;;;;;;10.90;8.13;;;;;;;;;;5059321;28;20089;-74
2022/06/23 01:22:20;;;;;;;8.38;7.43;;;;;;;;;;5059798;28;20038;-74
2022/06/23 01:25:05;;;;;;;8.10;7.28;;;;;;;;;;5064509;28;20016;-74
2022/06/23 01:27:35;;;;;;;8.25;7.55;;;;;;;;;;5060253;28;20032;-73
2022/06/23 01:30:08;;;;;;;12.65;8.45;;;;;;;;;;5063872;28;20056;-73
2022/06/23 01:32:43;;;;;;;9.98;7.80;;;;;;;;;;5065150;28;20031;-73
2022/06/23 01:35:15;;;;;;;9.32;7.22;;;;;;;;;;5047851;28;20047;-74
2022/06/23 01:37:45;;;;;;;8.15;7.45;;;;;;;;;;5065282;28;20046;-74
2022/06/23 01:40:11;;;;;;;8.20;7.50;;;;;;;;;;5061473;28;20409;-73
2022/06/23 01:42:59;;;;;;;9.98;8.10;;;;;;;;;;5060336;28;20078;-74
2022/06/23 01:45:27;;;;;;;8.40;7.53;;;;;;;;;;5057001;28;20028;-74
2022/06/23 01:47:57;;;;;;;9.45;7.65;;;;;;;;;;5060983;28;20029;-73
2022/06/23 01:50:43;;;;;;;9.40;7.53;;;;;;;;;;5047327;28;20024;-74
2022/06/23 01:53:12;;;;;;;10.80;6.93;;;;;;;;;;5063184;28;20090;-74
2022/06/23 01:55:58;;;;;;;8.35;7.55;;;;;;;;;;5057747;28;20071;-73
2022/06/23 01:58:26;;;;;;;8.45;7.55;;;;;;;;;;5061889;28;20073;-72
2022/06/23 02:00:54;;;;;;;10.88;7.50;;;;;;;;;;5060867;28;20035;-73
2022/06/23 02:03:23;;;;;;;8.48;7.15;;;;;;;;;;5060524;28;20047;-73
2022/06/23 02:05:55;;;;;;;8.85;7.95;;;;;;;;;;5062919;28;20036;-73
2022/06/23 02:08:27;;;;;;;8.63;7.15;;;;;;;;;;5060936;28;20039;-73
2022/06/23 02:11:02;;;;;;;8.20;7.03;;;;;;;;;;5062467;28;20032;-73
2022/06/23 02:13:35;;;;;;;9.38;7.85;;;;;;;;;;5063960;28;20135;-74
2022/06/23 02:16:20;;;;;;;8.07;7.28;;;;;;;;;;5061936;28;20038;-73
2022/06/23 02:18:49;;;;;;;9.20;8.30;;;;;;;;;;5058587;28;20029;-74
2022/06/23 02:21:15;;;;;;;9.65;7.47;;;;;;;;;;5056839;28;20029;-73
2022/06/23 02:23:44;;;;;;;9.35;7.00;;;;;;;;;;5059776;28;20033;-72
2022/06/23 02:26:13;;;;;;;8.35;7.43;;;;;;;;;;5059271;28;20538;-72
2022/06/23 02:28:43;;;;;;;8.38;7.55;;;;;;;;;;5058616;28;20033;-73
2022/06/23 02:31:19;;;;;;;8.98;7.75;;;;;;;;;;5065024;28;20467;-74
2022/06/23 02:33:51;;;;;;;11.13;8.40;;;;;;;;;;5060373;28;21159;-73
2022/06/23 02:36:17;;;;;;;8.23;7.43;;;;;;;;;;5061170;28;20389;-73
2022/06/23 02:38:45;;;;;;;9.60;8.07;;;;;;;;;;5060403;28;20025;-73
2022/06/23 02:41:30;;;;;;;10.48;7.68;;;;;;;;;;5062880;28;20469;-73
2022/06/23 02:44:17;;;;;;;9.05;7.53;;;;;;;;;;5062261;28;20024;-73
2022/06/23 02:46:45;;;;;;;11.18;8.00;;;;;;;;;;5042145;28;20115;-73
2022/06/23 02:49:14;;;;;;;8.68;7.88;;;;;;;;;;5062097;28;20021;-73
2022/06/23 02:51:58;;;;;;;9.40;7.70;;;;;;;;;;5064067;28;20120;-73
2022/06/23 02:54:27;;;;;;;8.60;7.70;;;;;;;;;;5062378;28;20032;-73
2022/06/23 02:57:03;;;;;;;11.50;7.68;;;;;;;;;;5047629;28;20028;-74
2022/06/23 02:59:35;;;;;;;8.75;7.82;;;;;;;;;;5060168;28;20033;-74
2022/06/23 03:02:08;;;;;;;8.48;7.57;;;;;;;;;;5057548;28;20036;-73
2022/06/23 03:04:38;;;;;;;10.77;7.53;;;;;;;;;;5040595;28;20028;-71
2022/06/23 03:07:08;;;;;;;8.68;7.97;;;;;;;;;;5052349;28;20029;-72
2022/06/23 03:09:43;;;;;;;8.48;7.68;;;;;;;;;;5054574;28;20563;-72
2022/06/23 03:12:18;;;;;;;8.75;7.93;;;;;;;;;;5058210;28;20031;-71
2022/06/23 03:14:54;;;;;;;8.55;7.60;;;;;;;;;;5055673;28;20051;-73
2022/06/23 03:17:35;;;;;;;8.30;7.50;;;;;;;;;;5053089;28;20074;-71
2022/06/23 03:20:07;;;;;;;8.02;7.22;;;;;;;;;;5053638;28;20025;-72
2022/06/23 03:22:48;;;;;;;8.63;7.82;;;;;;;;;;5053269;28;20067;-72
2022/06/23 03:25:29;;;;;;;10.05;7.20;;;;;;;;;;5055681;28;20099;-71
2022/06/23 03:27:58;;;;;;;10.43;8.05;;;;;;;;;;5053565;28;20040;-72
2022/06/23 03:30:32;;;;;;;8.38;7.43;;;;;;;;;;5056488;28;20033;-71
2022/06/23 03:33:13;;;;;;;8.20;6.88;;;;;;;;;;5048412;28;20543;-72
2022/06/23 03:35:42;;;;;;;8.95;7.88;;;;;;;;;;5056898;28;20021;-72
2022/06/23 03:41:36;;;;;;;9.20;7.88;;;;;;;;;;5054822;28;20090;-71
2022/06/23 03:43:59;;;;;;;9.07;7.88;;;;;;;;;;5046633;28;20721;-72
2022/06/23 03:46:28;;;;;;;9.30;7.78;;;;;;;;;;5045419;28;20025;-73
2022/06/23 03:48:58;;;;;;;9.25;7.25;;;;;;;;;;5050423;28;20043;-72
2022/06/23 03:51:35;;;;;;;28.02;8.40;;;;;;;;;;5046411;28;20032;-72
2022/06/23 03:54:13;;;;;;;9.82;8.02;;;;;;;;;;5049875;28;20056;-73
2022/06/23 03:56:45;;;;;;;12.43;8.43;;;;;;;;;;5054104;28;20029;-72
2022/06/23 03:59:16;;;;;;;11.13;8.00;;;;;;;;;;5051014;28;20730;-72
2022/06/23 04:01:46;;;;;;;9.63;7.55;;;;;;;;;;5053794;28;20027;-72
2022/06/23 04:04:16;;;;;;;8.73;7.55;;;;;;;;;;5052662;28;20056;-72
2022/06/23 04:06:47;;;;;;;12.25;7.47;;;;;;;;;;5053009;28;20036;-72
2022/06/23 04:09:16;;;;;;;11.45;8.23;;;;;;;;;;5049097;28;20028;-73
2022/06/23 04:11:45;;;;;;;14.35;7.75;;;;;;;;;;5046483;28;20037;-72
2022/06/23 04:14:21;;;;;;;10.63;7.80;;;;;;;;;;5043122;28;20036;-72
2022/06/23 04:16:50;;;;;;;12.85;7.70;;;;;;;;;;5044648;28;20086;-72
2022/06/23 04:19:25;;;;;;;10.07;8.38;;;;;;;;;;5054529;28;20357;-72
2022/06/23 04:21:57;;;;;;;11.52;8.10;;;;;;;;;;5059311;28;20028;-72
2022/06/23 04:24:24;;;;;;;12.23;7.93;;;;;;;;;;5053908;28;20052;-72
2022/06/23 04:26:53;;;;;;;9.80;8.68;;;;;;;;;;5046105;28;20051;-73
2022/06/23 04:29:19;;;;;;;12.02;7.90;;;;;;;;;;5051577;28;20049;-72
2022/06/23 04:32:13;;;;;;;12.15;8.48;;;;;;;;;;5055099;28;20021;-73
2022/06/23 04:34:47;;;;;;;13.10;7.90;;;;;;;;;;5010124;28;20045;-72
2022/06/23 04:37:21;;;;;;;11.68;7.95;;;;;;;;;;5060717;28;20031;-73
2022/06/23 04:39:49;;;;;;;11.80;8.02;;;;;;;;;;5060359;28;20032;-73
2022/06/23 04:42:19;;;;;;;18.23;8.23;;;;;;;;;;5047830;28;20421;-73
2022/06/23 04:44:49;;;;;;;30.75;9.48;;;;;;;;;;5053720;28;20020;-72
2022/06/23 04:47:29;;;;;;;11.02;8.00;;;;;;;;;;5052823;28;20024;-73
2022/06/23 04:49:58;;;;;;;25.88;8.55;;;;;;;;;;5048767;28;20123;-72
2022/06/23 04:52:28;;;;;;;22.42;8.35;;;;;;;;;;5047580;28;20036;-72
2022/06/23 04:55:15;;;;;;;10.98;7.50;;;;;;;;;;5057608;28;20040;-73
2022/06/23 04:57:59;;;;;;;9.38;8.02;;;;;;;;;;5053468;28;20089;-73
2022/06/23 05:00:31;;;;;;;11.82;7.65;;;;;;;;;;5050379;28;20420;-72
2022/06/23 05:03:00;;;;;;;9.43;7.82;;;;;;;;;;5053955;28;20037;-72
2022/06/23 05:05:29;;;;;;;14.85;8.52;;;;;;;;;;5054477;28;20028;-72
2022/06/23 05:08:00;;;;;;;10.05;8.30;;;;;;;;;;5062992;28;20037;-72
2022/06/23 05:10:28;;;;;;;9.83;8.30;;;;;;;;;;5052517;28;20103;-72
2022/06/23 05:13:00;;;;;;;14.52;8.50;;;;;;;;;;5062822;28;20083;-72
2022/06/23 05:15:31;;;;;;;11.02;7.90;;;;;;;;;;5060522;28;20043;-71
2022/06/23 05:18:02;;;;;;;15.30;8.60;;;;;;;;;;5060759;28;20637;-72
2022/06/23 05:20:28;;;;;;;;;;;;;;;;;;5054517;28;20096;-72
2022/06/23 05:22:54;;;;;;;15.20;8.50;;;;;;;;;;5050047;28;19909;-72
2022/06/23 05:25:35;;;;;;;14.95;8.77;;;;;;;;;;5053970;28;20054;-72
2022/06/23 05:28:04;;;;;;;15.93;8.82;;;;;;;;;;5055694;28;20025;-71
2022/06/23 05:30:33;;;;;;;10.70;7.50;;;;;;;;;;5051771;28;20495;-71
2022/06/23 05:33:04;;;;;;;10.00;7.78;;;;;;;;;;5045388;28;20188;-71
2022/06/23 05:35:34;;;;;;;8.95;8.05;;;;;;;;;;5048344;28;20553;-71
2022/06/23 05:38:10;;;;;;;9.55;7.68;;;;;;;;;;5050800;28;20116;-71
2022/06/23 05:40:43;;;;;;;12.23;8.15;;;;;;;;;;5057346;28;20518;-72
2022/06/23 05:43:11;;;;;;;16.58;8.90;;;;;;;;;;5044585;28;20032;-71
2022/06/23 05:45:41;;;;;;;8.75;7.57;;;;;;;;;;5057052;28;20472;-71
2022/06/23 05:48:09;;;;;;;11.80;8.35;;;;;;;;;;5060589;28;20032;-71
2022/06/23 05:50:56;;;;;;;8.43;7.57;;;;;;;;;;5062112;28;20033;-71
2022/06/23 05:53:28;;;;;;;13.25;7.72;;;;;;;;;;5062611;28;20063;-71
2022/06/23 05:56:05;;;;;;;9.88;7.82;;;;;;;;;;5061995;28;20077;-71
2022/06/23 05:58:35;;;;;;;10.18;7.90;;;;;;;;;;5062146;28;20020;-71
2022/06/23 06:01:11;;;;;;;8.63;7.70;;;;;;;;;;5062313;28;20868;-71
2022/06/23 06:03:43;;;;;;;12.02;8.55;;;;;;;;;;5058774;28;20259;-71
2022/06/23 06:06:10;;;;;;;9.80;7.93;;;;;;;;;;5061386;28;20035;-71
2022/06/23 06:09:35;;;;;;;10.60;7.97;;;;;;;;;;5061810;28;20021;-71
2022/06/23 06:11:26;;;;;;;8.60;7.80;;;;;;;;;;5061930;28;20070;-71
2022/06/23 06:13:53;;;;;;;9.55;7.68;;;;;;;;;;5061927;28;20043;-71
2022/06/23 06:16:19;;;;;;;11.02;8.05;;;;;;;;;;5061947;28;20524;-71
2022/06/23 06:18:46;;;;;;;9.07;7.47;;;;;;;;;;5052930;28;20256;-71
2022/06/23 06:21:16;;;;;;;10.15;8.57;;;;;;;;;;5061916;28;20029;-71
2022/06/23 06:23:49;;;;;;;9.48;8.52;;;;;;;;;;5061962;28;20028;-71
2022/06/23 06:26:18;;;;;;;12.45;8.88;;;;;;;;;;5062028;28;20335;-71
2022/06/23 06:28:44;;;;;;;12.50;8.60;;;;;;;;;;5059663;28;20056;-71
2022/06/23 06:31:18;;;;;;;10.85;8.18;;;;;;;;;;5061311;28;20389;-71
2022/06/23 06:33:53;;;;;;;8.48;7.60;;;;;;;;;;5060881;28;20280;-71
2022/06/23 06:36:28;;;;;;;9.35;8.40;;;;;;;;;;5061554;28;20070;-71
2022/06/23 06:39:10;;;;;;;11.30;8.30;;;;;;;;;;5061524;28;20025;-71
2022/06/23 06:41:38;;;;;;;9.35;8.20;;;;;;;;;;5060063;28;20438;-71
2022/06/23 06:44:04;;;;;;;11.82;8.68;;;;;;;;;;5050686;28;20029;-71
2022/06/23 06:46:31;;;;;;;10.10;9.02;;;;;;;;;;5051935;28;20036;-71
2022/06/23 06:48:58;;;;;;;12.65;9.20;;;;;;;;;;5050060;28;20076;-71
2022/06/23 06:51:26;;;;;;;10.82;8.65;;;;;;;;;;5048339;28;20088;-71
2022/06/23 06:53:58;;;;;;;14.02;9.30;;;;;;;;;;5052212;28;20078;-71
2022/06/23 06:56:24;;;;;;;11.57;9.13;;;;;;;;;;5050231;28;20067;-71
2022/06/23 06:58:54;;;;;;;13.02;9.07;;;;;;;;;;5051096;28;20039;-71
2022/06/23 07:01:25;;;;;;;9.43;8.37;;;;;;;;;;5050735;28;20024;-71
2022/06/23 07:03:52;;;;;;;13.18;9.60;;;;;;;;;;5050515;28;20503;-71
2022/06/23 07:06:24;;;;;;;12.90;9.63;;;;;;;;;;5047449;28;20891;-71
2022/06/23 07:09:09;;;;;;;12.95;9.63;;;;;;;;;;5049807;28;20027;-71
2022/06/23 07:11:41;;;;;;;13.95;9.40;;;;;;;;;;5050757;28;20116;-71
2022/06/23 07:14:14;;;;;;;14.57;8.93;;;;;;;;;;5048200;28;20348;-71
2022/06/23 07:16:58;;;;;;;12.90;9.45;;;;;;;;;;5051378;28;20540;-71
2022/06/23 07:19:33;;;;;;;13.40;10.07;;;;;;;;;;5050237;28;20048;-71
2022/06/23 07:22:15;;;;;;;13.45;10.02;;;;;;;;;;5052540;28;20027;-71
2022/06/23 07:24:53;;;;;;;16.13;10.32;;;;;;;;;;5047699;28;20039;-71
2022/06/23 07:27:40;;;;;;;12.25;9.25;;;;;;;;;;5048473;28;20025;-71
2022/06/23 07:30:13;;;;;;;13.15;9.50;;;;;;;;;;5047794;28;20090;-71
2022/06/23 07:32:58;;;;;;;9.75;8.75;;;;;;;;;;5047907;28;20036;-72
2022/06/23 07:35:32;;;;;;;14.48;9.10;;;;;;;;;;5052060;28;20492;-72
2022/06/23 07:38:10;;;;;;;14.70;8.65;;;;;;;;;;5054099;28;20024;-72
2022/06/23 07:40:51;;;;;;;10.43;8.10;;;;;;;;;;5052084;28;20028;-72
2022/06/23 07:43:37;;;;;;;11.18;8.15;;;;;;;;;;5047922;28;20028;-73
2022/06/23 07:46:03;;;;;;;11.32;8.52;;;;;;;;;;5054263;28;20642;-73
2022/06/23 07:48:33;;;;;;;10.60;8.20;;;;;;;;;;5054005;28;20561;-72
2022/06/23 07:51:02;;;;;;;8.85;7.82;;;;;;;;;;5052935;28;20020;-73
2022/06/23 07:53:29;;;;;;;13.93;8.60;;;;;;;;;;5037962;28;20416;-73
2022/06/23 07:55:55;;;;;;;14.13;8.35;;;;;;;;;;5050936;28;20788;-73
2022/06/23 07:58:26;;;;;;;8.23;7.53;;;;;;;;;;5053267;28;20021;-73
2022/06/23 08:00:55;;;;;;;8.65;7.15;;;;;;;;;;5054871;28;20692;-73
2022/06/23 08:03:41;;;;;;;8.63;7.88;;;;;;;;;;5053840;28;20441;-73
2022/06/23 08:06:10;;;;;;;8.80;6.85;;;;;;;;;;5052486;28;20105;-74
2022/06/23 08:08:38;;;;;;;8.85;7.15;;;;;;;;;;5046505;28;20028;-73
2022/06/23 08:13:58;;;;;;;10.00;7.78;;;;;;;;;;5050744;28;20106;-73
2022/06/23 08:19:12;;;;;;;8.65;7.47;;;;;;;;;;5058301;28;20622;-74
2022/06/23 08:21:41;;;;;;;7.80;6.72;;;;;;;;;;5052576;28;20077;-73
2022/06/23 08:24:15;;;;;;;8.10;7.40;;;;;;;;;;5051487;28;20019;-73
2022/06/23 08:26:44;;;;;;;9.93;7.95;;;;;;;;;;5052766;28;20523;-73
2022/06/23 08:29:13;;;;;;;8.30;7.55;;;;;;;;;;5052054;28;20049;-73
2022/06/23 08:31:39;;;;;;;10.48;7.78;;;;;;;;;;5053288;28;20056;-73
2022/06/23 08:34:06;;;;;;;10.23;7.90;;;;;;;;;;5049364;28;20528;-73
2022/06/23 08:36:43;;;;;;;14.95;7.80;;;;;;;;;;5051571;28;20451;-74
2022/06/23 08:39:13;;;;;;;8.70;7.88;;;;;;;;;;5059619;28;20625;-74
2022/06/23 08:41:39;;;;;;;8.73;7.83;;;;;;;;;;5062502;28;20107;-72
2022/06/23 08:44:12;;;;;;;11.48;8.43;;;;;;;;;;5062968;28;20265;-73
2022/06/23 08:46:40;;;;;;;8.57;7.78;;;;;;;;;;5047450;28;20036;-73
2022/06/23 08:49:11;;;;;;;9.48;8.15;;;;;;;;;;5053944;28;20029;-73
2022/06/23 08:51:37;;;;;;;;;;;;;;;;;;5048614;28;20038;-73
2022/06/23 08:54:09;;;;;;;10.20;7.95;;;;;;;;;;5052724;28;19924;-73
2022/06/23 08:56:43;;;;;;;11.85;7.57;;;;;;;;;;5047592;28;20481;-73
2022/06/23 08:59:15;;;;;;;15.85;8.40;;;;;;;;;;5052705;28;20032;-74
2022/06/23 09:02:00;;;;;;;13.10;8.48;;;;;;;;;;5052949;28;20025;-73
2022/06/23 09:04:38;;;;;;;14.85;8.52;;;;;;;;;;5054195;28;20039;-73
2022/06/23 09:07:14;;;;;;;11.52;8.30;;;;;;;;;;5052588;28;20039;-74
2022/06/23 09:09:47;;;;;;;9.57;7.30;;;;;;;;;;5052779;28;20024;-74
2022/06/23 09:12:26;;;;;;;9.13;7.90;;;;;;;;;;5050212;28;20600;-73
2022/06/23 09:15:12;;;;;;;9.20;8.15;;;;;;;;;;5051992;28;20098;-74
2022/06/23 09:17:41;;;;;;;10.80;7.78;;;;;;;;;;5052157;28;20487;-74
2022/06/23 09:20:22;;;;;;;9.27;8.38;;;;;;;;;;5040847;28;20468;-74
2022/06/23 09:23:08;;;;;;;9.32;8.35;;;;;;;;;;5053497;28;20025;-73
2022/06/23 09:25:41;;;;;;;14.57;8.73;;;;;;;;;;5049009;28;20384;-74
2022/06/23 09:28:07;;;;;;;14.68;8.45;;;;;;;;;;5053201;28;20461;-74
2022/06/23 09:30:36;;;;;;;10.07;7.82;;;;;;;;;;5048820;28;20032;-74
2022/06/23 09:33:02;;;;;;;13.55;8.13;;;;;;;;;;5056262;28;20488;-74
2022/06/23 09:35:31;;;;;;;8.90;7.20;;;;;;;;;;5062097;28;20097;-74
2022/06/23 09:38:10;;;;;;;15.73;7.65;;;;;;;;;;5050327;28;20024;-73
2022/06/23 09:40:48;;;;;;;10.35;6.93;;;;;;;;;;5053126;28;20032;-74
2022/06/23 09:43:30;;;;;;;12.57;6.82;;;;;;;;;;5055052;28;20021;-74
2022/06/23 09:45:59;;;;;;;8.35;6.75;;;;;;;;;;5058412;28;20021;-73
2022/06/23 09:48:44;;;;;;;12.57;7.05;;;;;;;;;;5055257;28;20299;-74
2022/06/23 09:51:22;;;;;;;10.15;6.43;;;;;;;;;;5050633;28;20020;-74
2022/06/23 09:53:51;;;;;;;6.82;4.32;;;;;;;;;;5050958;28;20496;-74
2022/06/23 09:56:17;;;;;;;10.55;7.25;;;;;;;;;;5052064;28;20504;-74
2022/06/23 09:58:43;;;;;;;10.82;6.68;;;;;;;;;;5051282;28;20546;-74
2022/06/23 10:01:28;;;;;;;9.95;6.30;;;;;;;;;;5048224;28;20175;-74
2022/06/23 10:04:10;;;;;;;8.07;4.20;;;;;;;;;;5048489;28;20021;-74
2022/06/23 10:06:55;;;;;;;12.13;3.78;;;;;;;;;;5050072;28;20020;-74
2022/06/23 10:09:27;;;;;;;4.40;2.80;;;;;;;;;;5051809;28;20035;-74
2022/06/23 10:12:08;;;;;;;3.92;2.83;;;;;;;;;;5051374;28;20028;-74
2022/06/23 10:14:53;;;;;;;4.50;3.15;;;;;;;;;;5043972;28;20465;-74
2022/06/23 10:17:31;;;;;;;3.15;2.40;;;;;;;;;;5051191;28;20073;-75
2022/06/23 10:19:57;;;;;;;5.35;3.17;;;;;;;;;;5037038;28;20043;-74
2022/06/23 10:22:36;;;;;;;5.97;3.20;;;;;;;;;;5051813;28;20047;-74
2022/06/23 10:25:09;;;;;;;4.05;2.92;;;;;;;;;;5051103;28;20020;-75
2022/06/23 10:28:01;;;;;;;13.90;3.80;;;;;;;;;;5051106;28;20025;-75
2022/06/23 10:30:27;;;;;;;9.57;3.88;;;;;;;;;;5037197;28;20045;-75
2022/06/23 10:32:53;;;;;;;10.13;3.97;;;;;;;;;;5051263;28;20051;-75
2022/06/23 10:35:19;;;;;;;4.50;3.60;;;;;;;;;;5049449;28;20361;-74
2022/06/23 10:38:04;;;;;;;5.10;3.15;;;;;;;;;;5029395;28;20020;-74
2022/06/23 10:40:43;;;;;;;7.32;2.65;;;;;;;;;;5047240;28;20091;-75
2022/06/23 10:43:29;;;;;;;8.77;2.70;;;;;;;;;;5057571;28;20103;-74
2022/06/23 10:46:02;;;;;;;5.47;2.47;;;;;;;;;;5021519;28;20443;-75
2022/06/23 10:48:47;;;;;;;7.20;2.90;;;;;;;;;;5041451;28;20032;-74
2022/06/23 10:51:28;;;;;;;5.80;3.13;;;;;;;;;;5047523;28;20031;-73
2022/06/23 10:54:10;;;;;;;5.75;3.33;;;;;;;;;;5050452;28;20040;-73
2022/06/23 10:56:48;;;;;;;7.05;3.33;;;;;;;;;;5050605;28;20028;-73
2022/06/23 10:59:30;;;;;;;7.80;3.53;;;;;;;;;;5056408;28;20123;-73
2022/06/23 11:01:56;;;;;;;4.40;3.42;;;;;;;;;;5036779;28;20330;-75
2022/06/23 11:04:49;;;;;;;4.95;3.88;;;;;;;;;;5059004;28;20102;-75
2022/06/23 11:07:23;;;;;;;6.60;3.83;;;;;;;;;;5034160;28;20045;-76
2022/06/23 11:10:04;;;;;;;6.18;3.90;;;;;;;;;;5049198;28;20085;-75
2022/06/23 11:12:53;;;;;;;8.10;3.90;;;;;;;;;;5049258;28;20100;-75
2022/06/23 11:15:24;;;;;;;6.90;4.40;;;;;;;;;;5050528;28;20029;-74
2022/06/23 11:17:59;;;;;;;8.30;4.15;;;;;;;;;;5048273;28;20137;-77
2022/06/23 11:20:37;;;;;;;7.78;4.63;;;;;;;;;;5048345;28;20043;-75
2022/06/23 11:23:19;;;;;;;5.78;4.40;;;;;;;;;;5034346;28;20021;-76
2022/06/23 11:25:51;;;;;;;5.50;4.40;;;;;;;;;;5045200;28;20127;-78
2022/06/23 11:28:20;;;;;;;7.68;4.85;;;;;;;;;;5031713;28;20021;-75
2022/06/23 11:30:52;;;;;;;5.38;4.55;;;;;;;;;;5053383;28;20032;-76
2022/06/23 11:33:37;;;;;;;7.43;5.20;;;;;;;;;;5050620;28;20398;-75
2022/06/23 11:36:15;;;;;;;9.80;5.95;;;;;;;;;;5044474;28;20044;-75
2022/06/23 11:38:50;;;;;;;12.43;5.93;;;;;;;;;;5049592;28;20493;-74
2022/06/23 11:41:22;;;;;;;8.82;5.38;;;;;;;;;;5028402;28;20025;-73
2022/06/23 11:43:57;;;;;;;11.27;6.60;;;;;;;;;;5047537;28;20618;-74
2022/06/23 11:46:38;;;;;;;6.63;5.65;;;;;;;;;;5052484;28;20036;-72
2022/06/23 11:49:10;;;;;;;7.47;6.13;;;;;;;;;;5043888;28;20037;-77
2022/06/23 11:52:15;;;;;;;10.90;7.35;;;;;;;;;;5051978;28;20118;-73
2022/06/23 11:54:42;;;;;;;10.45;7.38;;;;;;;;;;4983096;28;20168;-73
2022/06/23 11:57:24;;;;;;;9.32;6.30;;;;;;;;;;4988493;28;20029;-76
2022/06/23 12:00:08;;;;;;;7.35;6.53;;;;;;;;;;5015830;28;20045;-73
2022/06/23 12:02:39;;;;;;;9.38;6.28;;;;;;;;;;5051893;28;20017;-74
2022/06/23 12:05:24;;;;;;;8.52;6.30;;;;;;;;;;5065037;28;20058;-73
2022/06/23 12:08:24;;;;;;;9.45;6.53;;;;;;;;;;5064606;28;20021;-73
2022/06/23 12:10:50;;;;;;;6.82;6.13;;;;;;;;;;5017385;28;20482;-73
2022/06/23 12:13:16;;;;;;;9.63;7.38;;;;;;;;;;5053146;28;20036;-73
2022/06/23 12:15:48;;;;;;;11.82;7.72;;;;;;;;;;5052222;28;20032;-73
2022/06/23 12:18:20;;;;;;;8.57;7.32;;;;;;;;;;5054651;28;20043;-74
2022/06/23 12:21:05;;;;;;;13.52;8.20;;;;;;;;;;5031428;28;20036;-73
2022/06/23 12:23:41;;;;;;;10.70;8.10;;;;;;;;;;5050676;28;20033;-72
2022/06/23 12:26:07;;;;;;;9.27;8.48;;;;;;;;;;5050064;28;20025;-73
2022/06/23 12:28:39;;;;;;;9.35;7.97;;;;;;;;;;5046530;28;20123;-73
2022/06/23 12:31:24;;;;;;;14.68;9.02;;;;;;;;;;5043937;28;20028;-73
2022/06/23 12:33:53;;;;;;;10.68;8.63;;;;;;;;;;5047550;28;20048;-73
2022/06/23 12:36:33;;;;;;;10.70;9.60;;;;;;;;;;5048862;28;20029;-73
2022/06/23 12:39:04;;;;;;;10.52;9.43;;;;;;;;;;5048950;28;20537;-74
2022/06/23 12:41:34;;;;;;;10.98;9.88;;;;;;;;;;5049800;28;20100;-73
2022/06/23 12:44:08;;;;;;;12.00;10.43;;;;;;;;;;5050487;28;20571;-73
2022/06/23 12:46:53;;;;;;;11.18;10.18;;;;;;;;;;5049937;28;20040;-74
2022/06/23 12:49:22;;;;;;;14.93;10.13;;;;;;;;;;5050078;28;20040;-73
2022/06/23 12:51:48;;;;;;;11.32;10.27;;;;;;;;;;5051373;28;20032;-73
2022/06/23 12:54:33;;;;;;;10.23;9.38;;;;;;;;;;5046310;28;20678;-73
2022/06/23 12:57:13;;;;;;;11.02;10.05;;;;;;;;;;5054737;28;20029;-74
2022/06/23 12:59:42;;;;;;;10.45;9.55;;;;;;;;;;5049605;28;20028;-74
2022/06/23 13:02:27;;;;;;;10.85;9.75;;;;;;;;;;5055331;28;20104;-76
2022/06/23 13:05:03;;;;;;;11.00;10.10;;;;;;;;;;5047059;28;20032;-75
2022/06/23 13:07:35;;;;;;;10.85;9.93;;;;;;;;;;5056327;28;20095;-74
2022/06/23 13:10:20;;;;;;;10.38;9.20;;;;;;;;;;5048015;28;20564;-74
2022/06/23 13:13:04;;;;;;;9.75;8.65;;;;;;;;;;5050587;28;20088;-74
2022/06/23 13:15:31;;;;;;;12.63;8.30;;;;;;;;;;5047661;28;20037;-75
2022/06/23 13:18:00;;;;;;;8.57;7.18;;;;;;;;;;5044126;28;20032;-75
2022/06/23 13:20:29;;;;;;;7.63;6.78;;;;;;;;;;5045465;28;20827;-75
2022/06/23 13:22:59;;;;;;;6.90;6.25;;;;;;;;;;5049031;28;20143;-75
2022/06/23 13:25:28;;;;;;;6.38;5.68;;;;;;;;;;5048688;28;20090;-75
2022/06/23 13:27:55;;;;;;;5.70;5.20;;;;;;;;;;5044775;28;20037;-75
2022/06/23 13:30:24;;;;;;;6.28;5.60;;;;;;;;;;5044785;28;20114;-75
2022/06/23 13:33:09;;;;;;;7.03;5.88;;;;;;;;;;5047582;28;20028;-74
2022/06/23 13:35:45;;;;;;;8.85;6.57;;;;;;;;;;5046080;28;20040;-74
2022/06/23 13:38:19;;;;;;;8.55;7.68;;;;;;;;;;5046809;28;20020;-75
2022/06/23 13:40:57;;;;;;;8.32;7.47;;;;;;;;;;5031078;28;20025;-75
2022/06/23 13:43:31;;;;;;;8.73;7.50;;;;;;;;;;5045416;28;20832;-75
2022/06/23 13:45:57;;;;;;;8.00;7.30;;;;;;;;;;5043609;28;20107;-75
2022/06/23 13:48:28;;;;;;;7.03;6.50;;;;;;;;;;5045114;28;20062;-75
2022/06/23 13:51:01;;;;;;;8.55;7.63;;;;;;;;;;5049364;28;20029;-75
2022/06/23 13:53:43;;;;;;;8.15;7.45;;;;;;;;;;5046367;28;20101;-75
2022/06/23 13:56:16;;;;;;;7.95;7.07;;;;;;;;;;5046728;28;20087;-75
2022/06/23 13:58:54;;;;;;;7.45;6.85;;;;;;;;;;5048865;28;20089;-75
2022/06/23 14:01:38;;;;;;;8.07;7.40;;;;;;;;;;5050010;28;20021;-75
2022/06/23 14:04:10;;;;;;;9.65;7.07;;;;;;;;;;5041056;28;20604;-75
2022/06/23 14:06:40;;;;;;;7.82;6.90;;;;;;;;;;5044992;28;20033;-75
2022/06/23 14:09:09;;;;;;;7.35;6.70;;;;;;;;;;5034047;28;20656;-75
2022/06/23 14:11:35;;;;;;;9.70;7.75;;;;;;;;;;5049454;28;20020;-75
2022/06/23 14:14:07;;;;;;;7.18;6.55;;;;;;;;;;5042405;28;20820;-75
2022/06/23 14:16:48;;;;;;;7.80;7.00;;;;;;;;;;5044709;28;20255;-75
2022/06/23 14:19:18;;;;;;;7.67;6.53;;;;;;;;;;5045631;28;20021;-75
2022/06/23 14:21:54;;;;;;;6.77;6.10;;;;;;;;;;5044326;28;22295;-75
2022/06/23 14:24:26;;;;;;;7.25;6.32;;;;;;;;;;5052854;28;20073;-74
2022/06/23 14:27:08;;;;;;;7.25;6.45;;;;;;;;;;5054190;28;20074;-74
2022/06/23 14:29:37;;;;;;;5.60;5.10;;;;;;;;;;5046326;28;21588;-74
2022/06/23 14:32:05;;;;;;;6.68;5.57;;;;;;;;;;5032460;28;20049;-75
2022/06/23 14:34:34;;;;;;;5.35;4.95;;;;;;;;;;5046068;28;20037;-73
2022/06/23 14:37:26;;;;;;;5.90;5.25;;;;;;;;;;5053213;28;20029;-73
2022/06/23 14:39:56;;;;;;;7.53;5.82;;;;;;;;;;4999201;28;20044;-74
2022/06/23 14:42:40;;;;;;;7.63;5.28;;;;;;;;;;5043154;28;20135;-75
2022/06/23 14:45:06;;;;;;;5.60;5.15;;;;;;;;;;5049569;28;20040;-76
2022/06/23 14:47:41;;;;;;;5.05;4.65;;;;;;;;;;5045375;28;20039;-76
2022/06/23 14:50:21;;;;;;;5.28;4.88;;;;;;;;;;5048085;28;20552;-77
2022/06/23 14:52:51;;;;;;;5.13;4.63;;;;;;;;;;5042829;28;20024;-76
2022/06/23 14:55:26;;;;;;;6.18;5.68;;;;;;;;;;5028407;28;20040;-77
2022/06/23 14:58:19;;;;;;;7.07;5.22;;;;;;;;;;5047058;28;20059;-76
2022/06/23 15:00:55;;;;;;;6.68;5.40;;;;;;;;;;5041259;28;20036;-76
2022/06/23 15:03:25;;;;;;;5.38;4.90;;;;;;;;;;5032827;28;20051;-76
2022/06/23 15:05:57;;;;;;;8.95;5.38;;;;;;;;;;5041730;28;20029;-76
2022/06/23 15:08:42;;;;;;;7.60;5.30;;;;;;;;;;5039691;28;20093;-76
2022/06/23 15:11:17;;;;;;;6.25;5.43;;;;;;;;;;5045120;28;20024;-76
2022/06/23 15:13:54;;;;;;;5.88;5.38;;;;;;;;;;5040611;28;20032;-76
2022/06/23 15:16:39;;;;;;;5.82;5.18;;;;;;;;;;5026929;28;20029;-75
2022/06/23 15:19:13;;;;;;;5.40;4.95;;;;;;;;;;5050268;28;20032;-76
2022/06/23 15:25:02;;;;;;;5.57;5.10;;;;;;;;;;5048535;28;20664;-76
2022/06/23 15:27:37;;;;;;;6.63;5.25;;;;;;;;;;5045756;28;20453;-76
2022/06/23 15:30:09;;;;;;;5.50;4.53;;;;;;;;;;5032732;28;20109;-76